createdAt,value
2018-11-25T00:00:23.274Z,92.20
2018-11-25T00:02:52.262Z,92.20
2018-11-25T00:05:21.280Z,92.20
2018-11-25T00:07:50.065Z,92.10
2018-11-25T00:10:19.041Z,92.10
2018-11-25T00:12:47.952Z,92.20
2018-11-25T00:15:16.817Z,91.90
2018-11-25T00:17:45.829Z,92.00
2018-11-25T00:20:14.609Z,92.00
2018-11-25T00:22:43.857Z,92.40
2018-11-25T00:25:13.862Z,92.00
2018-11-25T00:27:42.990Z,92.00
2018-11-25T00:30:14.189Z,91.90
2018-11-25T00:32:43.147Z,92.00
2018-11-25T00:35:14.524Z,92.10
2018-11-25T00:37:48.141Z,92.10
2018-11-25T00:40:12.738Z,92.10
2018-11-25T00:42:44.535Z,92.00
2018-11-25T00:45:20.686Z,92.00
2018-11-25T00:47:50.473Z,91.90
2018-11-25T00:50:19.331Z,91.80
2018-11-25T00:52:48.254Z,91.80
2018-11-25T00:55:17.862Z,91.60
2018-11-25T00:57:47.469Z,91.60
2018-11-25T01:00:17.589Z,91.50
2018-11-25T01:02:47.064Z,91.50
2018-11-25T01:05:16.019Z,91.50
2018-11-25T01:07:45.005Z,91.50
2018-11-25T01:10:16.477Z,91.60
2018-11-25T01:12:45.942Z,91.60
2018-11-25T01:15:15.547Z,91.70
2018-11-25T01:17:44.376Z,91.60
2018-11-25T01:20:23.890Z,91.60
2018-11-25T01:22:52.786Z,91.60
2018-11-25T01:25:21.751Z,91.50
2018-11-25T01:27:53.689Z,91.50
2018-11-25T01:30:22.561Z,91.40
2018-11-25T01:32:52.182Z,91.50
2018-11-25T01:35:21.782Z,91.70
2018-11-25T01:37:50.728Z,91.70
2018-11-25T01:40:26.680Z,91.70
2018-11-25T01:42:55.934Z,91.60
2018-11-25T01:45:24.690Z,91.60
2018-11-25T01:47:53.562Z,91.60
2018-11-25T01:50:22.400Z,91.50
2018-11-25T01:52:51.519Z,91.40
2018-11-25T01:55:20.898Z,91.50
2018-11-25T01:57:50.527Z,91.70
2018-11-25T02:00:21.644Z,91.70
2018-11-25T02:02:50.560Z,91.60
2018-11-25T02:05:19.563Z,91.60
2018-11-25T02:07:55.322Z,91.70
2018-11-25T02:10:24.133Z,91.60
2018-11-25T02:12:53.057Z,91.50
2018-11-25T02:15:22.190Z,91.50
2018-11-25T02:17:51.043Z,91.50
2018-11-25T02:20:23.955Z,91.50
2018-11-25T02:22:54.008Z,91.60
2018-11-25T02:25:22.769Z,91.80
2018-11-25T02:27:51.846Z,91.80
2018-11-25T02:30:20.805Z,91.80
2018-11-25T02:32:49.726Z,91.80
2018-11-25T02:35:18.912Z,91.60
2018-11-25T02:37:47.810Z,91.80
2018-11-25T02:40:17.221Z,91.90
2018-11-25T02:42:49.406Z,91.90
2018-11-25T02:45:19.173Z,91.70
2018-11-25T02:47:48.417Z,91.70
2018-11-25T02:50:30.438Z,91.70
2018-11-25T02:53:00.365Z,91.60
2018-11-25T02:55:29.599Z,91.60
2018-11-25T02:57:58.569Z,91.50
2018-11-25T03:00:27.596Z,91.40
2018-11-25T03:02:56.724Z,91.20
2018-11-25T03:05:25.715Z,91.40
2018-11-25T03:07:54.559Z,91.50
2018-11-25T03:10:23.833Z,91.50
2018-11-25T03:12:53.136Z,91.50
2018-11-25T03:15:21.946Z,91.40
2018-11-25T03:17:51.043Z,91.40
2018-11-25T03:20:19.902Z,91.50
2018-11-25T03:22:48.563Z,91.50
2018-11-25T03:25:18.836Z,91.40
2018-11-25T03:27:47.955Z,91.80
2018-11-25T03:30:17.872Z,91.40
2018-11-25T03:32:47.848Z,91.60
2018-11-25T03:35:16.665Z,91.60
2018-11-25T03:37:45.497Z,91.40
2018-11-25T03:40:19.165Z,91.40
2018-11-25T03:42:48.243Z,91.40
2018-11-25T03:45:20.217Z,91.30
2018-11-25T03:47:49.103Z,91.20
2018-11-25T03:50:18.026Z,91.30
2018-11-25T03:52:47.225Z,91.40
2018-11-25T03:55:17.702Z,91.60
2018-11-25T03:57:46.620Z,91.60
2018-11-25T04:00:17.593Z,91.60
2018-11-25T04:02:46.318Z,91.40
2018-11-25T04:05:16.181Z,91.30
2018-11-25T04:07:45.134Z,91.40
2018-11-25T04:10:14.922Z,91.50
2018-11-25T04:12:44.062Z,91.60
2018-11-25T04:15:16.010Z,91.60
2018-11-25T04:17:45.327Z,91.40
2018-11-25T04:20:16.239Z,91.40
2018-11-25T04:22:45.824Z,91.30
2018-11-25T04:25:14.677Z,91.40
2018-11-25T04:27:43.632Z,91.40
2018-11-25T04:30:16.885Z,91.40
2018-11-25T04:32:46.755Z,91.40
2018-11-25T04:35:16.582Z,91.30
2018-11-25T04:37:45.398Z,91.30
2018-11-25T04:40:16.259Z,91.30
2018-11-25T04:42:45.281Z,91.20
2018-11-25T04:45:15.865Z,91.20
2018-11-25T04:47:45.319Z,91.00
2018-11-25T04:50:17.410Z,90.90
2018-11-25T04:52:46.487Z,91.00
2018-11-25T04:55:15.367Z,91.00
2018-11-25T04:57:51.726Z,91.00
2018-11-25T05:00:20.836Z,91.00
2018-11-25T05:02:50.367Z,91.00
2018-11-25T05:05:19.846Z,91.10
2018-11-25T05:07:48.784Z,91.30
2018-11-25T05:10:18.417Z,91.20
2018-11-25T05:12:47.681Z,91.00
2018-11-25T05:15:18.743Z,91.00
2018-11-25T05:17:48.076Z,91.10
2018-11-25T05:20:17.293Z,91.10
2018-11-25T05:22:46.194Z,91.10
2018-11-25T05:25:16.945Z,91.10
2018-11-25T05:27:45.924Z,91.40
2018-11-25T05:30:16.629Z,91.30
2018-11-25T05:32:45.704Z,91.40
2018-11-25T05:35:15.669Z,91.50
2018-11-25T05:37:44.548Z,92.10
2018-11-25T05:40:15.164Z,91.80
2018-11-25T05:42:43.992Z,92.30
2018-11-25T05:45:17.841Z,92.10
2018-11-25T05:47:46.456Z,92.10
2018-11-25T05:50:17.902Z,92.20
2018-11-25T05:52:46.421Z,92.40
2018-11-25T05:55:15.175Z,92.40
2018-11-25T05:57:44.028Z,92.60
2018-11-25T06:00:15.112Z,92.60
2018-11-25T06:02:44.406Z,92.70
2018-11-25T06:05:13.353Z,92.70
2018-11-25T06:07:42.216Z,92.70
2018-11-25T06:10:12.265Z,92.50
2018-11-25T06:12:41.196Z,92.50
2018-11-25T06:15:11.760Z,92.40
2018-11-25T06:17:40.653Z,92.30
2018-11-25T06:20:12.901Z,92.30
2018-11-25T06:22:41.603Z,92.10
2018-11-25T06:25:11.619Z,92.10
2018-11-25T06:27:40.346Z,92.10
2018-11-25T06:30:16.315Z,92.00
2018-11-25T06:32:45.142Z,92.10
2018-11-25T06:35:14.875Z,91.90
2018-11-25T06:37:43.484Z,91.90
2018-11-25T06:40:19.460Z,92.00
2018-11-25T06:42:48.112Z,92.00
2018-11-25T06:45:21.033Z,92.10
2018-11-25T06:47:49.636Z,92.20
2018-11-25T06:50:18.272Z,92.10
2018-11-25T06:52:46.936Z,92.20
2018-11-25T06:55:15.412Z,92.10
2018-11-25T06:57:43.936Z,92.20
2018-11-25T07:00:14.891Z,92.20
2018-11-25T07:02:43.850Z,92.00
2018-11-25T07:05:12.428Z,92.10
2018-11-25T07:07:40.955Z,92.50
2018-11-25T07:10:14.468Z,92.80
2018-11-25T07:12:46.441Z,92.80
2018-11-25T07:15:16.049Z,92.60
2018-11-25T07:17:44.787Z,92.70
2018-11-25T07:20:14.362Z,92.70
2018-11-25T07:22:43.195Z,92.50
2018-11-25T07:25:17.111Z,92.40
2018-11-25T07:27:45.654Z,92.10
2018-11-25T07:30:17.455Z,91.80
2018-11-25T07:32:45.936Z,91.70
2018-11-25T07:35:14.638Z,91.30
2018-11-25T07:37:43.664Z,91.20
2018-11-25T07:40:16.361Z,91.20
2018-11-25T07:42:45.293Z,90.90
2018-11-25T07:45:16.893Z,90.60
2018-11-25T07:47:45.793Z,90.50
2018-11-25T07:50:14.523Z,90.30
2018-11-25T07:52:44.099Z,90.60
2018-11-25T07:55:15.615Z,90.40
2018-11-25T07:57:44.762Z,90.00
2018-11-25T08:00:18.267Z,90.00
2018-11-25T08:02:46.817Z,90.10
2018-11-25T08:05:17.972Z,89.20
2018-11-25T08:07:46.516Z,89.30
2018-11-25T08:10:15.900Z,89.70
2018-11-25T08:12:45.415Z,89.50
2018-11-25T08:15:15.079Z,88.70
2018-11-25T08:17:43.810Z,88.70
2018-11-25T08:20:15.179Z,89.00
2018-11-25T08:22:43.962Z,88.80
2018-11-25T08:25:14.608Z,89.10
2018-11-25T08:27:43.403Z,89.10
2018-11-25T08:30:15.051Z,88.40
2018-11-25T08:32:43.826Z,88.60
2018-11-25T08:35:13.338Z,89.10
2018-11-25T08:37:42.126Z,89.40
2018-11-25T08:40:12.858Z,88.80
2018-11-25T08:42:41.617Z,88.50
2018-11-25T08:45:11.246Z,88.20
2018-11-25T08:47:39.841Z,88.30
2018-11-25T08:50:13.655Z,88.20
2018-11-25T08:52:43.242Z,87.60
2018-11-25T08:55:17.037Z,87.50
2018-11-25T08:57:46.149Z,87.30
2018-11-25T09:00:20.098Z,87.70
2018-11-25T09:02:49.773Z,87.00
2018-11-25T09:05:18.692Z,87.40
2018-11-25T09:07:47.745Z,88.20
2018-11-25T09:10:17.627Z,88.70
2018-11-25T09:12:55.130Z,88.80
2018-11-25T09:15:20.503Z,89.40
2018-11-25T09:17:49.225Z,89.80
2018-11-25T09:20:19.946Z,90.00
2018-11-25T09:22:48.645Z,90.00
2018-11-25T09:25:28.327Z,89.50
2018-11-25T09:27:57.517Z,89.80
2018-11-25T09:30:27.622Z,89.20
2018-11-25T09:32:56.321Z,89.10
2018-11-25T09:35:25.271Z,89.30
2018-11-25T09:37:54.071Z,89.70
2018-11-25T09:40:24.876Z,89.20
2018-11-25T09:42:53.894Z,89.80
2018-11-25T09:45:22.421Z,89.90
2018-11-25T09:47:51.492Z,89.90
2018-11-25T09:50:22.361Z,89.80
2018-11-25T09:52:51.110Z,89.60
2018-11-25T09:55:24.254Z,89.40
2018-11-25T09:57:54.883Z,88.80
2018-11-25T10:00:26.845Z,89.50
2018-11-25T10:02:55.600Z,89.50
2018-11-25T10:05:24.290Z,89.50
2018-11-25T10:07:53.281Z,89.20
2018-11-25T10:10:22.934Z,88.70
2018-11-25T10:12:51.570Z,87.70
2018-11-25T10:15:24.596Z,87.40
2018-11-25T10:17:59.507Z,86.60
2018-11-25T10:20:24.039Z,86.10
2018-11-25T10:22:52.968Z,86.60
2018-11-25T10:25:21.660Z,86.00
2018-11-25T10:27:50.320Z,86.20
2018-11-25T10:30:23.093Z,85.70
2018-11-25T10:32:53.925Z,85.60
2018-11-25T10:35:22.728Z,84.70
2018-11-25T10:37:51.781Z,83.60
2018-11-25T10:40:21.498Z,83.40
2018-11-25T10:42:50.073Z,83.00
2018-11-25T10:45:21.999Z,83.50
2018-11-25T10:47:50.678Z,82.90
2018-11-25T10:50:20.064Z,83.20
2018-11-25T10:52:49.103Z,83.00
2018-11-25T10:55:20.869Z,82.40
2018-11-25T10:57:50.598Z,82.50
2018-11-25T11:00:33.890Z,83.20
2018-11-25T11:03:07.950Z,82.70
2018-11-25T11:05:42.595Z,83.40
2018-11-25T11:08:11.518Z,82.40
2018-11-25T11:10:40.354Z,82.30
2018-11-25T11:13:09.360Z,81.90
2018-11-25T11:15:38.574Z,82.30
2018-11-25T11:18:07.787Z,82.20
2018-11-25T11:20:36.651Z,82.70
2018-11-25T11:23:06.014Z,81.90
2018-11-25T11:25:34.886Z,81.60
2018-11-25T11:28:04.975Z,80.70
2018-11-25T11:30:33.950Z,81.40
2018-11-25T11:33:02.475Z,80.60
2018-11-25T11:35:31.107Z,80.70
2018-11-25T11:37:59.601Z,81.30
2018-11-25T11:40:28.297Z,81.10
2018-11-25T11:42:57.115Z,81.10
2018-11-25T11:45:25.714Z,81.20
2018-11-25T11:47:54.198Z,81.80
2018-11-25T11:50:23.052Z,81.60
2018-11-25T11:52:51.652Z,81.80
2018-11-25T11:55:20.235Z,82.00
2018-11-25T11:57:49.120Z,82.00
2018-11-25T12:00:21.106Z,82.30
2018-11-25T12:02:49.793Z,82.10
2018-11-25T12:05:18.327Z,82.10
2018-11-25T12:07:46.880Z,82.20
2018-11-25T12:10:16.356Z,81.70
2018-11-25T12:12:44.917Z,82.30
2018-11-25T12:15:16.873Z,82.60
2018-11-25T12:17:45.645Z,82.50
2018-11-25T12:20:14.196Z,82.90
2018-11-25T12:22:42.991Z,83.00
2018-11-25T12:25:13.127Z,82.90
2018-11-25T12:27:41.788Z,83.00
2018-11-25T12:30:11.634Z,82.80
2018-11-25T12:32:40.377Z,83.00
2018-11-25T12:35:10.217Z,82.90
2018-11-25T12:37:38.789Z,82.60
2018-11-25T12:40:10.942Z,82.50
2018-11-25T12:42:40.296Z,82.20
2018-11-25T12:45:10.705Z,82.00
2018-11-25T12:47:40.356Z,82.50
2018-11-25T12:50:11.274Z,81.80
2018-11-25T12:52:40.641Z,81.80
2018-11-25T12:55:13.221Z,82.20
2018-11-25T12:57:42.575Z,82.10
2018-11-25T13:00:24.944Z,82.00
2018-11-25T13:02:54.475Z,82.20
2018-11-25T13:05:23.783Z,82.40
2018-11-25T13:07:53.161Z,82.70
2018-11-25T13:10:22.789Z,82.50
2018-11-25T13:12:52.135Z,82.70
2018-11-25T13:15:21.461Z,83.40
2018-11-25T13:17:51.167Z,83.70
2018-11-25T13:20:20.616Z,83.90
2018-11-25T13:22:50.229Z,83.80
2018-11-25T13:25:20.066Z,83.80
2018-11-25T13:27:50.037Z,83.50
2018-11-25T13:30:22.360Z,83.30
2018-11-25T13:32:53.362Z,83.70
2018-11-25T13:35:23.045Z,83.60
2018-11-25T13:37:52.392Z,83.70
2018-11-25T13:40:21.766Z,83.60
2018-11-25T13:42:51.340Z,83.70
2018-11-25T13:45:20.564Z,83.50
2018-11-25T13:47:49.857Z,83.60
2018-11-25T13:50:20.191Z,83.40
2018-11-25T13:52:49.522Z,83.20
2018-11-25T13:55:20.758Z,83.50
2018-11-25T13:57:50.928Z,83.50
2018-11-25T14:00:31.935Z,83.60
2018-11-25T14:03:01.622Z,83.60
2018-11-25T14:05:31.110Z,83.50
2018-11-25T14:08:00.950Z,83.60
2018-11-25T14:10:32.150Z,83.50
2018-11-25T14:13:01.469Z,83.40
2018-11-25T14:15:30.926Z,83.40
2018-11-25T14:18:01.190Z,83.50
2018-11-25T14:20:30.810Z,83.30
2018-11-25T14:23:00.600Z,83.30
2018-11-25T14:25:30.345Z,83.20
2018-11-25T14:28:02.860Z,83.30
2018-11-25T14:30:33.260Z,83.20
2018-11-25T14:33:02.738Z,83.60
2018-11-25T14:35:32.146Z,83.60
2018-11-25T14:38:01.829Z,83.70
2018-11-25T14:40:31.281Z,83.80
2018-11-25T14:43:00.579Z,83.90
2018-11-25T14:45:30.321Z,84.80
2018-11-25T14:47:59.728Z,84.10
2018-11-25T14:50:29.040Z,84.20
2018-11-25T14:52:58.337Z,84.30
2018-11-25T14:55:27.583Z,84.40
2018-11-25T14:57:56.564Z,84.50
2018-11-25T15:00:25.075Z,84.80
2018-11-25T15:02:58.550Z,84.70
2018-11-25T15:05:34.212Z,85.00
2018-11-25T15:08:03.416Z,85.00
2018-11-25T15:10:32.077Z,85.00
2018-11-25T15:13:00.720Z,85.00
2018-11-25T15:15:29.700Z,85.10
2018-11-25T15:17:58.233Z,85.10
2018-11-25T15:20:26.865Z,85.20
2018-11-25T15:22:57.440Z,85.10
2018-11-25T15:25:28.818Z,85.20
2018-11-25T15:27:58.230Z,85.40
2018-11-25T15:30:26.818Z,85.50
2018-11-25T15:32:55.495Z,85.90
2018-11-25T15:35:24.081Z,86.10
2018-11-25T15:37:53.835Z,86.10
2018-11-25T15:40:29.621Z,86.10
2018-11-25T15:42:58.395Z,86.10
2018-11-25T15:45:26.925Z,86.10
2018-11-25T15:48:01.590Z,86.10
2018-11-25T15:50:30.808Z,86.00
2018-11-25T15:52:59.458Z,86.90
2018-11-25T15:55:28.504Z,86.60
2018-11-25T15:57:57.005Z,86.40
2018-11-25T16:00:25.959Z,86.60
2018-11-25T16:02:54.722Z,86.70
2018-11-25T16:05:25.733Z,86.80
2018-11-25T16:07:54.417Z,86.70
2018-11-25T16:10:27.912Z,86.40
2018-11-25T16:12:56.656Z,86.40
2018-11-25T16:15:27.100Z,86.30
2018-11-25T16:17:55.941Z,86.40
2018-11-25T16:20:26.036Z,86.40
2018-11-25T16:23:05.122Z,86.40
2018-11-25T16:25:49.744Z,86.20
2018-11-25T16:28:40.186Z,86.30
2018-11-25T16:31:09.008Z,86.20
2018-11-25T16:33:37.852Z,86.20
2018-11-25T16:36:06.957Z,86.20
2018-11-25T16:38:35.834Z,86.20
2018-11-25T16:41:04.863Z,86.30
2018-11-25T16:43:33.878Z,86.40
2018-11-25T16:46:02.656Z,86.50
2018-11-25T16:48:31.552Z,86.60
2018-11-25T16:51:00.365Z,86.80
2018-11-25T16:53:29.330Z,86.90
2018-11-25T16:55:57.868Z,87.00
2018-11-25T16:58:26.291Z,87.00
2018-11-25T17:00:55.138Z,87.10
2018-11-25T17:03:23.554Z,87.30
2018-11-25T17:05:52.812Z,87.10
2018-11-25T17:08:31.426Z,87.20
2018-11-25T17:11:01.797Z,87.20
2018-11-25T17:13:29.114Z,87.20
2018-11-25T17:15:57.707Z,87.10
2018-11-25T17:18:26.110Z,87.00
2018-11-25T17:20:54.589Z,86.90
2018-11-25T17:23:23.244Z,86.90
2018-11-25T17:25:51.731Z,86.80
2018-11-25T17:28:20.189Z,86.80
2018-11-25T17:30:48.581Z,86.70
2018-11-25T17:33:17.035Z,86.60
2018-11-25T17:35:45.555Z,86.60
2018-11-25T17:38:14.085Z,86.60
2018-11-25T17:40:42.593Z,86.50
2018-11-25T17:43:15.217Z,86.60
2018-11-25T17:45:43.725Z,86.80
2018-11-25T17:48:12.266Z,86.80
2018-11-25T17:50:40.712Z,87.00
2018-11-25T17:53:12.423Z,87.20
2018-11-25T17:55:41.089Z,88.00
2018-11-25T17:58:09.509Z,87.40
2018-11-25T18:00:46.672Z,87.70
2018-11-25T18:03:22.886Z,88.00
2018-11-25T18:05:51.355Z,88.30
2018-11-25T18:08:20.095Z,88.50
2018-11-25T18:10:48.757Z,88.50
2018-11-25T18:13:18.452Z,88.60
2018-11-25T18:15:47.061Z,88.70
2018-11-25T18:18:41.280Z,89.40
2018-11-25T18:21:15.208Z,88.90
2018-11-25T18:23:44.165Z,88.90
2018-11-25T18:26:12.973Z,88.70
2018-11-25T18:28:41.577Z,88.70
2018-11-25T18:31:10.822Z,88.80
2018-11-25T18:33:39.403Z,88.90
2018-11-25T18:36:09.726Z,88.80
2018-11-25T18:38:38.129Z,88.90
2018-11-25T18:41:06.668Z,89.10
2018-11-25T18:43:35.507Z,89.20
2018-11-25T18:46:04.302Z,89.30
2018-11-25T18:48:33.937Z,89.30
2018-11-25T18:51:02.852Z,89.50
2018-11-25T18:53:32.054Z,89.60
2018-11-25T18:56:01.097Z,89.60
2018-11-25T18:58:30.653Z,90.10
2018-11-25T19:01:20.180Z,89.70
2018-11-25T19:03:49.116Z,89.80
2018-11-25T19:06:17.952Z,89.70
2018-11-25T19:08:46.806Z,89.80
2018-11-25T19:11:15.765Z,89.90
2018-11-25T19:13:44.554Z,89.80
2018-11-25T19:16:13.002Z,89.80
2018-11-25T19:18:41.498Z,89.70
2018-11-25T19:21:09.965Z,89.30
2018-11-25T19:23:38.431Z,89.10
2018-11-25T19:26:07.521Z,88.80
2018-11-25T19:28:35.967Z,88.90
2018-11-25T19:31:04.470Z,89.20
2018-11-25T19:33:33.070Z,89.10
2018-11-25T19:36:01.517Z,89.20
2018-11-25T19:38:30.074Z,89.10
2018-11-25T19:40:58.548Z,89.10
2018-11-25T19:43:27.133Z,89.20
2018-11-25T19:45:55.584Z,89.40
2018-11-25T19:48:24.052Z,89.50
2018-11-25T19:50:52.587Z,89.60
2018-11-25T19:53:21.022Z,89.60
2018-11-25T19:55:49.566Z,90.10
2018-11-25T19:58:18.368Z,89.80
2018-11-25T20:00:47.026Z,90.00
2018-11-25T20:03:15.496Z,89.90
2018-11-25T20:05:44.252Z,89.90
2018-11-25T20:08:12.901Z,89.90
2018-11-25T20:10:42.024Z,90.00
2018-11-25T20:13:11.910Z,90.00
2018-11-25T20:15:39.474Z,89.70
2018-11-25T20:18:09.384Z,89.50
2018-11-25T20:20:38.845Z,89.40
2018-11-25T20:23:07.413Z,89.20
2018-11-25T20:25:36.273Z,89.40
2018-11-25T20:28:04.815Z,89.50
2018-11-25T20:30:33.869Z,89.70
2018-11-25T20:33:07.793Z,89.70
2018-11-25T20:35:36.212Z,89.60
2018-11-25T20:38:11.245Z,89.40
2018-11-25T20:40:39.639Z,89.30
2018-11-25T20:43:08.153Z,88.90
2018-11-25T20:45:42.089Z,88.70
2018-11-25T20:48:10.662Z,88.60
2018-11-25T20:50:39.166Z,89.10
2018-11-25T20:53:12.984Z,88.20
2018-11-25T20:55:41.309Z,88.30
2018-11-25T20:58:09.951Z,88.00
2018-11-25T21:00:39.748Z,88.00
2018-11-25T21:03:09.521Z,87.70
2018-11-25T21:05:38.038Z,87.60
2018-11-25T21:08:07.089Z,87.70
2018-11-25T21:10:36.080Z,87.70
2018-11-25T21:13:04.573Z,87.50
2018-11-25T21:15:33.146Z,87.50
2018-11-25T21:18:01.688Z,87.50
2018-11-25T21:20:30.081Z,87.50
2018-11-25T21:22:59.031Z,87.60
2018-11-25T21:25:27.401Z,87.70
2018-11-25T21:27:55.777Z,87.70
2018-11-25T21:30:25.714Z,87.90
2018-11-25T21:32:56.212Z,87.80
2018-11-25T21:35:24.914Z,87.80
2018-11-25T21:37:54.761Z,87.70
2018-11-25T21:40:24.436Z,87.40
2018-11-25T21:42:52.977Z,87.40
2018-11-25T21:45:22.306Z,87.40
2018-11-25T21:47:50.970Z,87.30
2018-11-25T21:50:28.253Z,87.10
2018-11-25T21:52:56.684Z,87.10
2018-11-25T21:55:25.273Z,86.90
2018-11-25T21:57:53.828Z,86.90
2018-11-25T22:00:23.390Z,86.80
2018-11-25T22:02:51.977Z,86.90
2018-11-25T22:05:24.660Z,86.90
2018-11-25T22:07:49.260Z,86.80
2018-11-25T22:10:18.963Z,86.80
2018-11-25T22:12:48.024Z,86.80
2018-11-25T22:15:17.610Z,86.70
2018-11-25T22:17:46.066Z,86.70
2018-11-25T22:20:15.241Z,86.70
2018-11-25T22:22:43.757Z,86.80
2018-11-25T22:25:13.138Z,86.70
2018-11-25T22:27:41.592Z,86.60
2018-11-25T22:30:11.705Z,86.40
2018-11-25T22:32:40.645Z,86.40
2018-11-25T22:35:13.183Z,86.40
2018-11-25T22:37:42.240Z,86.40
2018-11-25T22:40:12.089Z,86.40
2018-11-25T22:42:41.517Z,86.30
2018-11-25T22:45:13.513Z,86.30
2018-11-25T22:47:42.265Z,86.10
2018-11-25T22:50:15.079Z,86.00
2018-11-25T22:52:44.058Z,86.10
2018-11-25T22:55:14.175Z,86.00
2018-11-25T22:57:43.171Z,86.30
2018-11-25T23:00:44.129Z,86.40
2018-11-25T23:03:12.941Z,86.60
2018-11-25T23:05:52.970Z,86.70
2018-11-25T23:08:21.669Z,86.80
2018-11-25T23:10:53.580Z,86.80
2018-11-25T23:13:22.534Z,87.00
2018-11-25T23:15:51.689Z,87.40
2018-11-25T23:18:20.655Z,87.60
2018-11-25T23:20:49.477Z,87.60
2018-11-25T23:23:18.397Z,88.00
2018-11-25T23:25:47.145Z,88.10
2018-11-25T23:28:15.981Z,88.20
2018-11-25T23:30:44.933Z,88.30
2018-11-25T23:33:13.772Z,88.30
2018-11-25T23:39:22.597Z,88.60
2018-11-25T23:41:55.397Z,88.60
2018-11-25T23:44:25.975Z,88.30
2018-11-25T23:47:02.032Z,88.20
2018-11-25T23:49:41.370Z,88.20
2018-11-25T23:52:13.696Z,88.20
2018-11-25T23:54:47.684Z,88.30
2018-11-25T23:57:23.810Z,88.20
2018-11-25T23:59:55.582Z,88.10
